Terminal Aerodrome Forecast
Issued by NWS Boston, MA

Home | Current Version | Previous Version | Text Only | Print | Product List | Glossary On
Versions: 1 2 3 4 5 6 7 8 9 10 11 12 13 14 15 16 17 18 19 20 21 22 23 24 25 26 27 28 29 30 31 32 33 34 35 36 37 38 39 40 41 42 43 44
000
FTUS41 KBOX 020522
TAFBOS
TAF
KBOS 020522Z 0206/0312 03012KT 2SM RA BR OVC008
     FM021300 03014KT 3SM BR OVC008
     FM021500 04014KT P6SM OVC015
     FM021800 03013KT P6SM BKN025
     FM021900 04013KT P6SM BKN050
     FM030000 05009KT P6SM SCT250=

USA.gov is the U.S. government's official web portal to all federal, state and local government web resources and services.